sensor_id;sensor_type;location;lat;lon;timestamp;P1;durP1;ratioP1;P2;durP2;ratioP2
24901;SDS011;31328;51.402;0.016;2022-10-31T00:00:25;9.05;;;3.22;;
24901;SDS011;31328;51.402;0.016;2022-10-31T00:02:52;9.35;;;3.00;;
24901;SDS011;31328;51.402;0.016;2022-10-31T00:05:18;12.82;;;2.75;;
24901;SDS011;31328;51.402;0.016;2022-10-31T00:07:44;10.77;;;2.60;;
24901;SDS011;31328;51.402;0.016;2022-10-31T00:10:10;10.82;;;2.65;;
24901;SDS011;31328;51.402;0.016;2022-10-31T00:12:36;8.75;;;2.65;;
24901;SDS011;31328;51.402;0.016;2022-10-31T00:15:03;6.55;;;2.38;;
24901;SDS011;31328;51.402;0.016;2022-10-31T00:17:29;12.00;;;2.67;;
24901;SDS011;31328;51.402;0.016;2022-10-31T00:19:56;9.23;;;2.50;;
24901;SDS011;31328;51.402;0.016;2022-10-31T00:22:22;9.98;;;2.70;;
24901;SDS011;31328;51.402;0.016;2022-10-31T00:24:48;11.35;;;2.38;;
24901;SDS011;31328;51.402;0.016;2022-10-31T00:27:14;7.80;;;2.45;;
24901;SDS011;31328;51.402;0.016;2022-10-31T00:29:41;6.22;;;2.83;;
24901;SDS011;31328;51.402;0.016;2022-10-31T00:32:07;8.43;;;2.72;;
24901;SDS011;31328;51.402;0.016;2022-10-31T00:34:34;4.45;;;2.50;;
24901;SDS011;31328;51.402;0.016;2022-10-31T00:37:00;9.98;;;2.50;;
24901;SDS011;31328;51.402;0.016;2022-10-31T00:39:26;4.93;;;2.20;;
24901;SDS011;31328;51.402;0.016;2022-10-31T00:41:53;9.10;;;2.42;;
24901;SDS011;31328;51.402;0.016;2022-10-31T00:44:19;8.02;;;2.75;;
24901;SDS011;31328;51.402;0.016;2022-10-31T00:46:45;6.63;;;2.85;;
24901;SDS011;31328;51.402;0.016;2022-10-31T00:49:12;7.53;;;2.70;;
24901;SDS011;31328;51.402;0.016;2022-10-31T00:51:38;10.07;;;2.63;;
24901;SDS011;31328;51.402;0.016;2022-10-31T00:54:04;4.28;;;2.40;;
24901;SDS011;31328;51.402;0.016;2022-10-31T00:56:31;6.85;;;2.47;;
24901;SDS011;31328;51.402;0.016;2022-10-31T00:58:58;11.18;;;2.60;;
24901;SDS011;31328;51.402;0.016;2022-10-31T01:01:25;8.83;;;2.77;;
24901;SDS011;31328;51.402;0.016;2022-10-31T01:03:51;6.00;;;2.50;;
24901;SDS011;31328;51.402;0.016;2022-10-31T01:06:19;8.07;;;3.10;;
24901;SDS011;31328;51.402;0.016;2022-10-31T01:08:46;6.88;;;2.65;;
24901;SDS011;31328;51.402;0.016;2022-10-31T01:11:14;7.82;;;2.80;;
24901;SDS011;31328;51.402;0.016;2022-10-31T01:13:41;4.90;;;2.30;;
24901;SDS011;31328;51.402;0.016;2022-10-31T01:16:09;7.60;;;2.37;;
24901;SDS011;31328;51.402;0.016;2022-10-31T01:18:38;10.47;;;2.73;;
24901;SDS011;31328;51.402;0.016;2022-10-31T01:21:05;8.73;;;2.60;;
24901;SDS011;31328;51.402;0.016;2022-10-31T01:23:33;9.13;;;2.97;;
24901;SDS011;31328;51.402;0.016;2022-10-31T01:26:01;8.70;;;2.47;;
24901;SDS011;31328;51.402;0.016;2022-10-31T01:28:27;8.23;;;3.25;;
24901;SDS011;31328;51.402;0.016;2022-10-31T01:30:54;6.15;;;3.08;;
24901;SDS011;31328;51.402;0.016;2022-10-31T01:33:20;7.40;;;2.67;;
24901;SDS011;31328;51.402;0.016;2022-10-31T01:35:46;9.30;;;2.88;;
24901;SDS011;31328;51.402;0.016;2022-10-31T01:38:12;11.13;;;2.90;;
24901;SDS011;31328;51.402;0.016;2022-10-31T01:40:39;3.88;;;2.33;;
24901;SDS011;31328;51.402;0.016;2022-10-31T01:43:07;8.33;;;2.40;;
24901;SDS011;31328;51.402;0.016;2022-10-31T01:45:40;6.22;;;2.30;;
24901;SDS011;31328;51.402;0.016;2022-10-31T01:48:12;6.27;;;2.53;;
24901;SDS011;31328;51.402;0.016;2022-10-31T01:50:40;4.23;;;2.40;;
24901;SDS011;31328;51.402;0.016;2022-10-31T01:53:09;8.13;;;2.47;;
24901;SDS011;31328;51.402;0.016;2022-10-31T01:55:41;6.72;;;2.55;;
24901;SDS011;31328;51.402;0.016;2022-10-31T01:58:15;10.50;;;3.40;;
24901;SDS011;31328;51.402;0.016;2022-10-31T02:00:46;7.25;;;2.63;;
24901;SDS011;31328;51.402;0.016;2022-10-31T02:03:16;9.27;;;2.97;;
24901;SDS011;31328;51.402;0.016;2022-10-31T02:05:44;9.88;;;3.00;;
24901;SDS011;31328;51.402;0.016;2022-10-31T02:08:15;9.77;;;3.27;;
24901;SDS011;31328;51.402;0.016;2022-10-31T02:10:49;11.50;;;2.70;;
24901;SDS011;31328;51.402;0.016;2022-10-31T02:13:16;10.98;;;2.83;;
24901;SDS011;31328;51.402;0.016;2022-10-31T02:15:48;7.78;;;2.92;;
24901;SDS011;31328;51.402;0.016;2022-10-31T02:18:17;10.20;;;3.23;;
24901;SDS011;31328;51.402;0.016;2022-10-31T02:26:11;6.93;;;2.42;;
24901;SDS011;31328;51.402;0.016;2022-10-31T02:29:05;9.57;;;3.20;;
24901;SDS011;31328;51.402;0.016;2022-10-31T02:32:03;6.82;;;3.03;;
24901;SDS011;31328;51.402;0.016;2022-10-31T02:41:09;7.78;;;2.13;;
24901;SDS011;31328;51.402;0.016;2022-10-31T02:43:58;12.67;;;3.93;;
24901;SDS011;31328;51.402;0.016;2022-10-31T02:46:44;11.70;;;2.77;;
24901;SDS011;31328;51.402;0.016;2022-10-31T02:52:35;9.18;;;2.80;;
24901;SDS011;31328;51.402;0.016;2022-10-31T02:55:11;10.18;;;2.80;;
24901;SDS011;31328;51.402;0.016;2022-10-31T02:58:00;9.98;;;2.85;;
24901;SDS011;31328;51.402;0.016;2022-10-31T03:00:52;10.38;;;2.70;;
24901;SDS011;31328;51.402;0.016;2022-10-31T03:12:28;14.00;;;4.00;;
24901;SDS011;31328;51.402;0.016;2022-10-31T03:20:24;8.73;;;2.75;;
24901;SDS011;31328;51.402;0.016;2022-10-31T03:22:55;9.38;;;3.25;;
24901;SDS011;31328;51.402;0.016;2022-10-31T03:25:22;12.93;;;2.75;;
24901;SDS011;31328;51.402;0.016;2022-10-31T03:27:53;11.07;;;3.00;;
24901;SDS011;31328;51.402;0.016;2022-10-31T03:30:22;11.68;;;3.03;;
24901;SDS011;31328;51.402;0.016;2022-10-31T03:32:55;10.77;;;4.57;;
24901;SDS011;31328;51.402;0.016;2022-10-31T03:35:25;10.05;;;2.40;;
24901;SDS011;31328;51.402;0.016;2022-10-31T03:37:54;12.00;;;3.60;;
24901;SDS011;31328;51.402;0.016;2022-10-31T03:40:22;5.50;;;2.63;;
24901;SDS011;31328;51.402;0.016;2022-10-31T03:42:59;10.85;;;3.28;;
24901;SDS011;31328;51.402;0.016;2022-10-31T03:45:32;11.25;;;2.90;;
24901;SDS011;31328;51.402;0.016;2022-10-31T03:48:03;9.43;;;3.28;;
24901;SDS011;31328;51.402;0.016;2022-10-31T03:50:39;17.52;;;3.70;;
24901;SDS011;31328;51.402;0.016;2022-10-31T03:59:15;10.10;;;2.78;;
24901;SDS011;31328;51.402;0.016;2022-10-31T04:01:50;9.85;;;2.83;;
24901;SDS011;31328;51.402;0.016;2022-10-31T04:04:21;8.30;;;2.70;;
24901;SDS011;31328;51.402;0.016;2022-10-31T04:06:49;13.55;;;3.75;;
24901;SDS011;31328;51.402;0.016;2022-10-31T04:09:17;11.15;;;2.95;;
24901;SDS011;31328;51.402;0.016;2022-10-31T04:11:48;10.32;;;2.88;;
24901;SDS011;31328;51.402;0.016;2022-10-31T04:14:33;16.30;;;4.22;;
24901;SDS011;31328;51.402;0.016;2022-10-31T04:17:03;10.23;;;2.50;;
24901;SDS011;31328;51.402;0.016;2022-10-31T04:19:37;9.18;;;3.20;;
24901;SDS011;31328;51.402;0.016;2022-10-31T04:22:03;11.70;;;3.33;;
24901;SDS011;31328;51.402;0.016;2022-10-31T04:24:30;8.63;;;2.40;;
24901;SDS011;31328;51.402;0.016;2022-10-31T04:26:57;6.07;;;2.40;;
24901;SDS011;31328;51.402;0.016;2022-10-31T04:29:24;8.15;;;2.70;;
24901;SDS011;31328;51.402;0.016;2022-10-31T04:31:50;12.55;;;3.25;;
24901;SDS011;31328;51.402;0.016;2022-10-31T04:34:17;12.45;;;3.33;;
24901;SDS011;31328;51.402;0.016;2022-10-31T04:36:43;9.07;;;2.70;;
24901;SDS011;31328;51.402;0.016;2022-10-31T04:39:09;9.70;;;2.72;;
24901;SDS011;31328;51.402;0.016;2022-10-31T04:41:40;9.85;;;3.03;;
24901;SDS011;31328;51.402;0.016;2022-10-31T04:44:13;12.43;;;2.38;;
24901;SDS011;31328;51.402;0.016;2022-10-31T04:46:39;8.75;;;2.90;;
24901;SDS011;31328;51.402;0.016;2022-10-31T04:49:07;8.23;;;2.33;;
24901;SDS011;31328;51.402;0.016;2022-10-31T04:51:34;7.38;;;2.63;;
24901;SDS011;31328;51.402;0.016;2022-10-31T04:54:00;9.48;;;2.67;;
24901;SDS011;31328;51.402;0.016;2022-10-31T04:56:27;9.63;;;2.70;;
24901;SDS011;31328;51.402;0.016;2022-10-31T04:58:59;7.43;;;2.45;;
24901;SDS011;31328;51.402;0.016;2022-10-31T05:01:29;10.05;;;3.55;;
24901;SDS011;31328;51.402;0.016;2022-10-31T05:03:57;6.30;;;2.90;;
24901;SDS011;31328;51.402;0.016;2022-10-31T05:06:24;11.60;;;2.95;;
24901;SDS011;31328;51.402;0.016;2022-10-31T05:08:50;9.88;;;2.58;;
24901;SDS011;31328;51.402;0.016;2022-10-31T05:11:16;13.13;;;3.60;;
24901;SDS011;31328;51.402;0.016;2022-10-31T05:13:44;8.98;;;3.08;;
24901;SDS011;31328;51.402;0.016;2022-10-31T05:16:12;6.15;;;2.67;;
24901;SDS011;31328;51.402;0.016;2022-10-31T05:19:02;10.40;;;2.53;;
24901;SDS011;31328;51.402;0.016;2022-10-31T05:21:51;9.40;;;2.70;;
24901;SDS011;31328;51.402;0.016;2022-10-31T05:24:18;8.43;;;2.35;;
24901;SDS011;31328;51.402;0.016;2022-10-31T05:26:48;13.77;;;3.20;;
24901;SDS011;31328;51.402;0.016;2022-10-31T05:29:15;7.22;;;2.03;;
24901;SDS011;31328;51.402;0.016;2022-10-31T05:31:41;11.10;;;3.55;;
24901;SDS011;31328;51.402;0.016;2022-10-31T05:34:18;17.80;;;3.07;;
24901;SDS011;31328;51.402;0.016;2022-10-31T05:36:44;8.20;;;2.43;;
24901;SDS011;31328;51.402;0.016;2022-10-31T05:39:14;11.27;;;2.60;;
24901;SDS011;31328;51.402;0.016;2022-10-31T05:41:43;9.60;;;3.00;;
24901;SDS011;31328;51.402;0.016;2022-10-31T05:44:17;8.35;;;2.15;;
24901;SDS011;31328;51.402;0.016;2022-10-31T05:46:59;11.80;;;2.27;;
24901;SDS011;31328;51.402;0.016;2022-10-31T05:49:55;6.63;;;1.85;;
24901;SDS011;31328;51.402;0.016;2022-10-31T05:55:18;8.03;;;2.40;;
24901;SDS011;31328;51.402;0.016;2022-10-31T05:58:02;12.40;;;2.63;;
24901;SDS011;31328;51.402;0.016;2022-10-31T06:00:29;15.10;;;2.93;;
24901;SDS011;31328;51.402;0.016;2022-10-31T06:03:06;11.77;;;2.43;;
24901;SDS011;31328;51.402;0.016;2022-10-31T06:05:43;6.57;;;2.37;;
24901;SDS011;31328;51.402;0.016;2022-10-31T06:08:10;5.40;;;1.83;;
24901;SDS011;31328;51.402;0.016;2022-10-31T06:10:38;10.77;;;3.27;;
24901;SDS011;31328;51.402;0.016;2022-10-31T06:13:05;9.23;;;2.50;;
24901;SDS011;31328;51.402;0.016;2022-10-31T06:15:36;7.15;;;2.40;;
24901;SDS011;31328;51.402;0.016;2022-10-31T06:18:05;9.50;;;2.40;;
24901;SDS011;31328;51.402;0.016;2022-10-31T06:20:43;9.70;;;2.10;;
24901;SDS011;31328;51.402;0.016;2022-10-31T06:23:10;7.50;;;2.70;;
24901;SDS011;31328;51.402;0.016;2022-10-31T06:25:37;9.73;;;2.08;;
24901;SDS011;31328;51.402;0.016;2022-10-31T06:28:04;4.97;;;2.03;;
24901;SDS011;31328;51.402;0.016;2022-10-31T06:30:43;8.27;;;2.93;;
24901;SDS011;31328;51.402;0.016;2022-10-31T06:33:10;5.63;;;1.87;;
24901;SDS011;31328;51.402;0.016;2022-10-31T06:35:47;9.30;;;2.20;;
24901;SDS011;31328;51.402;0.016;2022-10-31T06:38:16;6.60;;;1.87;;
24901;SDS011;31328;51.402;0.016;2022-10-31T06:40:42;11.10;;;2.57;;
24901;SDS011;31328;51.402;0.016;2022-10-31T06:43:17;9.37;;;2.20;;
24901;SDS011;31328;51.402;0.016;2022-10-31T06:45:44;7.18;;;2.03;;
24901;SDS011;31328;51.402;0.016;2022-10-31T06:48:22;7.50;;;2.07;;
24901;SDS011;31328;51.402;0.016;2022-10-31T06:51:06;9.98;;;2.10;;
24901;SDS011;31328;51.402;0.016;2022-10-31T06:53:33;9.50;;;2.50;;
24901;SDS011;31328;51.402;0.016;2022-10-31T06:56:00;5.63;;;2.10;;
24901;SDS011;31328;51.402;0.016;2022-10-31T06:58:26;11.30;;;2.83;;
24901;SDS011;31328;51.402;0.016;2022-10-31T07:01:00;10.97;;;2.27;;
24901;SDS011;31328;51.402;0.016;2022-10-31T07:03:27;6.33;;;2.17;;
24901;SDS011;31328;51.402;0.016;2022-10-31T07:05:56;7.00;;;2.47;;
24901;SDS011;31328;51.402;0.016;2022-10-31T07:08:24;10.73;;;2.70;;
24901;SDS011;31328;51.402;0.016;2022-10-31T07:10:52;11.63;;;2.63;;
24901;SDS011;31328;51.402;0.016;2022-10-31T07:13:20;7.47;;;2.10;;
24901;SDS011;31328;51.402;0.016;2022-10-31T07:15:55;5.13;;;2.78;;
24901;SDS011;31328;51.402;0.016;2022-10-31T07:18:25;8.17;;;3.10;;
24901;SDS011;31328;51.402;0.016;2022-10-31T07:20:52;6.60;;;2.43;;
24901;SDS011;31328;51.402;0.016;2022-10-31T07:23:20;7.30;;;2.40;;
24901;SDS011;31328;51.402;0.016;2022-10-31T07:26:04;10.10;;;2.40;;
24901;SDS011;31328;51.402;0.016;2022-10-31T07:28:38;6.80;;;2.97;;
24901;SDS011;31328;51.402;0.016;2022-10-31T07:31:06;8.47;;;2.50;;
24901;SDS011;31328;51.402;0.016;2022-10-31T07:33:32;9.27;;;2.17;;
24901;SDS011;31328;51.402;0.016;2022-10-31T07:36:21;7.67;;;2.50;;
24901;SDS011;31328;51.402;0.016;2022-10-31T07:38:50;6.57;;;2.67;;
24901;SDS011;31328;51.402;0.016;2022-10-31T07:41:17;9.57;;;2.50;;
24901;SDS011;31328;51.402;0.016;2022-10-31T07:43:45;5.03;;;2.47;;
24901;SDS011;31328;51.402;0.016;2022-10-31T07:46:17;9.37;;;2.87;;
24901;SDS011;31328;51.402;0.016;2022-10-31T07:49:02;9.87;;;2.77;;
24901;SDS011;31328;51.402;0.016;2022-10-31T07:51:47;13.17;;;3.33;;
24901;SDS011;31328;51.402;0.016;2022-10-31T07:54:42;5.27;;;2.30;;
24901;SDS011;31328;51.402;0.016;2022-10-31T07:57:08;12.77;;;3.73;;
24901;SDS011;31328;51.402;0.016;2022-10-31T07:59:35;9.70;;;3.27;;
24901;SDS011;31328;51.402;0.016;2022-10-31T08:02:01;10.97;;;2.77;;
24901;SDS011;31328;51.402;0.016;2022-10-31T08:04:30;8.70;;;2.50;;
24901;SDS011;31328;51.402;0.016;2022-10-31T08:07:35;11.20;;;3.50;;
24901;SDS011;31328;51.402;0.016;2022-10-31T08:10:04;18.47;;;5.23;;
24901;SDS011;31328;51.402;0.016;2022-10-31T08:12:31;10.23;;;3.20;;
24901;SDS011;31328;51.402;0.016;2022-10-31T08:14:57;8.27;;;3.53;;
24901;SDS011;31328;51.402;0.016;2022-10-31T08:17:24;12.00;;;2.97;;
24901;SDS011;31328;51.402;0.016;2022-10-31T08:19:54;9.30;;;2.50;;
24901;SDS011;31328;51.402;0.016;2022-10-31T08:22:27;8.70;;;2.87;;
24901;SDS011;31328;51.402;0.016;2022-10-31T08:24:53;9.27;;;2.90;;
24901;SDS011;31328;51.402;0.016;2022-10-31T08:27:20;10.83;;;4.20;;
24901;SDS011;31328;51.402;0.016;2022-10-31T08:29:47;10.73;;;3.07;;
24901;SDS011;31328;51.402;0.016;2022-10-31T08:32:13;10.00;;;2.83;;
24901;SDS011;31328;51.402;0.016;2022-10-31T08:35:02;14.25;;;3.72;;
24901;SDS011;31328;51.402;0.016;2022-10-31T08:37:54;9.70;;;3.57;;
24901;SDS011;31328;51.402;0.016;2022-10-31T08:40:24;15.27;;;4.70;;
24901;SDS011;31328;51.402;0.016;2022-10-31T08:45:28;12.73;;;3.13;;
24901;SDS011;31328;51.402;0.016;2022-10-31T08:47:57;14.23;;;3.23;;
24901;SDS011;31328;51.402;0.016;2022-10-31T08:50:25;12.83;;;3.00;;
24901;SDS011;31328;51.402;0.016;2022-10-31T08:52:53;12.63;;;2.70;;
24901;SDS011;31328;51.402;0.016;2022-10-31T08:55:19;12.35;;;3.45;;
24901;SDS011;31328;51.402;0.016;2022-10-31T08:58:03;12.30;;;3.40;;
24901;SDS011;31328;51.402;0.016;2022-10-31T09:00:40;14.90;;;2.80;;
24901;SDS011;31328;51.402;0.016;2022-10-31T09:03:25;15.75;;;3.00;;
24901;SDS011;31328;51.402;0.016;2022-10-31T09:05:55;11.82;;;3.50;;
24901;SDS011;31328;51.402;0.016;2022-10-31T09:08:23;12.20;;;3.38;;
24901;SDS011;31328;51.402;0.016;2022-10-31T09:10:50;10.10;;;3.05;;
24901;SDS011;31328;51.402;0.016;2022-10-31T09:13:25;12.25;;;3.20;;
24901;SDS011;31328;51.402;0.016;2022-10-31T09:16:10;11.05;;;3.08;;
24901;SDS011;31328;51.402;0.016;2022-10-31T09:18:36;7.35;;;2.72;;
24901;SDS011;31328;51.402;0.016;2022-10-31T09:21:02;9.32;;;2.90;;
24901;SDS011;31328;51.402;0.016;2022-10-31T09:23:30;10.18;;;2.85;;
24901;SDS011;31328;51.402;0.016;2022-10-31T09:25:59;10.57;;;3.10;;
24901;SDS011;31328;51.402;0.016;2022-10-31T09:28:56;12.25;;;2.42;;
24901;SDS011;31328;51.402;0.016;2022-10-31T09:31:24;10.18;;;2.80;;
24901;SDS011;31328;51.402;0.016;2022-10-31T09:34:14;8.13;;;2.60;;
24901;SDS011;31328;51.402;0.016;2022-10-31T09:36:45;5.90;;;2.78;;
24901;SDS011;31328;51.402;0.016;2022-10-31T09:39:17;10.23;;;2.83;;
24901;SDS011;31328;51.402;0.016;2022-10-31T09:47:54;7.37;;;2.03;;
24901;SDS011;31328;51.402;0.016;2022-10-31T09:51:05;6.68;;;2.30;;
24901;SDS011;31328;51.402;0.016;2022-10-31T09:54:02;10.75;;;2.67;;
24901;SDS011;31328;51.402;0.016;2022-10-31T09:56:40;7.55;;;2.83;;
24901;SDS011;31328;51.402;0.016;2022-10-31T09:59:11;9.77;;;2.85;;
24901;SDS011;31328;51.402;0.016;2022-10-31T10:01:47;6.18;;;3.10;;
24901;SDS011;31328;51.402;0.016;2022-10-31T10:07:19;7.32;;;2.25;;
24901;SDS011;31328;51.402;0.016;2022-10-31T10:10:09;9.80;;;2.55;;
24901;SDS011;31328;51.402;0.016;2022-10-31T10:16:16;7.63;;;2.10;;
24901;SDS011;31328;51.402;0.016;2022-10-31T10:21:31;9.85;;;2.95;;
24901;SDS011;31328;51.402;0.016;2022-10-31T10:26:43;9.98;;;2.85;;
24901;SDS011;31328;51.402;0.016;2022-10-31T10:29:36;5.97;;;2.28;;
24901;SDS011;31328;51.402;0.016;2022-10-31T10:32:16;6.82;;;2.97;;
24901;SDS011;31328;51.402;0.016;2022-10-31T10:35:04;6.45;;;2.90;;
24901;SDS011;31328;51.402;0.016;2022-10-31T10:37:43;6.13;;;2.78;;
24901;SDS011;31328;51.402;0.016;2022-10-31T10:40:19;7.75;;;2.13;;
24901;SDS011;31328;51.402;0.016;2022-10-31T10:42:50;9.45;;;2.22;;
24901;SDS011;31328;51.402;0.016;2022-10-31T10:51:28;6.35;;;1.95;;
24901;SDS011;31328;51.402;0.016;2022-10-31T10:54:32;11.45;;;2.60;;
24901;SDS011;31328;51.402;0.016;2022-10-31T11:00:23;5.25;;;2.50;;
24901;SDS011;31328;51.402;0.016;2022-10-31T11:02:55;4.18;;;2.35;;
24901;SDS011;31328;51.402;0.016;2022-10-31T11:08:06;8.00;;;1.83;;
24901;SDS011;31328;51.402;0.016;2022-10-31T11:10:33;6.47;;;2.05;;
24901;SDS011;31328;51.402;0.016;2022-10-31T11:15:31;7.03;;;2.42;;
24901;SDS011;31328;51.402;0.016;2022-10-31T11:18:01;7.85;;;2.17;;
24901;SDS011;31328;51.402;0.016;2022-10-31T11:20:31;8.48;;;2.47;;
24901;SDS011;31328;51.402;0.016;2022-10-31T11:23:01;8.40;;;1.95;;
24901;SDS011;31328;51.402;0.016;2022-10-31T11:25:30;6.25;;;2.30;;
24901;SDS011;31328;51.402;0.016;2022-10-31T11:30:27;5.50;;;1.48;;
24901;SDS011;31328;51.402;0.016;2022-10-31T11:32:55;7.13;;;2.33;;
24901;SDS011;31328;51.402;0.016;2022-10-31T11:35:22;3.15;;;1.30;;
24901;SDS011;31328;51.402;0.016;2022-10-31T11:37:51;5.05;;;2.05;;
24901;SDS011;31328;51.402;0.016;2022-10-31T11:40:23;7.25;;;1.25;;
24901;SDS011;31328;51.402;0.016;2022-10-31T11:42:52;4.80;;;1.88;;
24901;SDS011;31328;51.402;0.016;2022-10-31T11:45:33;6.75;;;1.48;;
24901;SDS011;31328;51.402;0.016;2022-10-31T11:48:02;3.70;;;1.27;;
24901;SDS011;31328;51.402;0.016;2022-10-31T11:50:47;3.72;;;1.30;;
24901;SDS011;31328;51.402;0.016;2022-10-31T11:53:17;5.95;;;1.40;;
24901;SDS011;31328;51.402;0.016;2022-10-31T11:55:59;6.70;;;1.30;;
24901;SDS011;31328;51.402;0.016;2022-10-31T11:58:31;3.50;;;1.00;;
24901;SDS011;31328;51.402;0.016;2022-10-31T12:00:57;5.28;;;1.10;;
24901;SDS011;31328;51.402;0.016;2022-10-31T12:03:33;3.05;;;0.90;;
24901;SDS011;31328;51.402;0.016;2022-10-31T12:06:38;4.97;;;1.75;;
24901;SDS011;31328;51.402;0.016;2022-10-31T12:09:16;3.05;;;1.13;;
24901;SDS011;31328;51.402;0.016;2022-10-31T12:14:47;5.40;;;1.08;;
24901;SDS011;31328;51.402;0.016;2022-10-31T12:42:41;6.80;;;1.38;;
24901;SDS011;31328;51.402;0.016;2022-10-31T12:45:27;3.63;;;2.20;;
24901;SDS011;31328;51.402;0.016;2022-10-31T12:50:34;5.63;;;2.22;;
24901;SDS011;31328;51.402;0.016;2022-10-31T12:53:19;6.00;;;1.27;;
24901;SDS011;31328;51.402;0.016;2022-10-31T12:58:45;2.40;;;1.08;;
24901;SDS011;31328;51.402;0.016;2022-10-31T13:01:17;2.42;;;0.88;;
24901;SDS011;31328;51.402;0.016;2022-10-31T13:03:53;3.10;;;1.10;;
24901;SDS011;31328;51.402;0.016;2022-10-31T13:06:33;4.65;;;1.08;;
24901;SDS011;31328;51.402;0.016;2022-10-31T13:09:08;4.93;;;1.40;;
24901;SDS011;31328;51.402;0.016;2022-10-31T13:11:42;5.28;;;1.58;;
24901;SDS011;31328;51.402;0.016;2022-10-31T13:14:14;4.25;;;1.90;;
24901;SDS011;31328;51.402;0.016;2022-10-31T13:16:43;5.22;;;1.52;;
24901;SDS011;31328;51.402;0.016;2022-10-31T13:19:20;5.00;;;1.42;;
24901;SDS011;31328;51.402;0.016;2022-10-31T13:21:54;9.63;;;2.20;;
24901;SDS011;31328;51.402;0.016;2022-10-31T13:24:31;5.75;;;2.22;;
24901;SDS011;31328;51.402;0.016;2022-10-31T13:27:29;9.00;;;2.20;;
24901;SDS011;31328;51.402;0.016;2022-10-31T13:30:21;4.38;;;1.42;;
24901;SDS011;31328;51.402;0.016;2022-10-31T13:32:51;4.20;;;1.25;;
24901;SDS011;31328;51.402;0.016;2022-10-31T13:35:35;5.03;;;1.48;;
24901;SDS011;31328;51.402;0.016;2022-10-31T13:38:30;4.57;;;1.80;;
24901;SDS011;31328;51.402;0.016;2022-10-31T13:48:57;3.65;;;1.27;;
24901;SDS011;31328;51.402;0.016;2022-10-31T13:51:25;3.75;;;0.88;;
24901;SDS011;31328;51.402;0.016;2022-10-31T13:56:24;4.88;;;1.40;;
24901;SDS011;31328;51.402;0.016;2022-10-31T14:01:31;13.02;;;1.48;;
24901;SDS011;31328;51.402;0.016;2022-10-31T14:06:40;2.58;;;1.17;;
24901;SDS011;31328;51.402;0.016;2022-10-31T14:17:50;5.40;;;1.35;;
24901;SDS011;31328;51.402;0.016;2022-10-31T14:20:21;2.97;;;1.27;;
24901;SDS011;31328;51.402;0.016;2022-10-31T14:22:48;4.68;;;1.92;;
24901;SDS011;31328;51.402;0.016;2022-10-31T14:25:24;3.63;;;1.60;;
24901;SDS011;31328;51.402;0.016;2022-10-31T14:27:54;5.43;;;1.98;;
24901;SDS011;31328;51.402;0.016;2022-10-31T14:30:22;3.05;;;1.40;;
24901;SDS011;31328;51.402;0.016;2022-10-31T14:32:58;3.80;;;1.10;;
24901;SDS011;31328;51.402;0.016;2022-10-31T14:38:43;3.58;;;1.20;;
24901;SDS011;31328;51.402;0.016;2022-10-31T14:44:19;3.38;;;1.08;;
24901;SDS011;31328;51.402;0.016;2022-10-31T14:47:11;4.05;;;1.30;;
24901;SDS011;31328;51.402;0.016;2022-10-31T14:52:48;2.40;;;1.10;;
24901;SDS011;31328;51.402;0.016;2022-10-31T14:55:19;6.20;;;1.60;;
24901;SDS011;31328;51.402;0.016;2022-10-31T14:57:49;4.13;;;2.08;;
24901;SDS011;31328;51.402;0.016;2022-10-31T15:00:21;3.75;;;1.20;;
24901;SDS011;31328;51.402;0.016;2022-10-31T15:05:41;2.67;;;1.35;;
24901;SDS011;31328;51.402;0.016;2022-10-31T15:11:09;5.97;;;1.92;;
24901;SDS011;31328;51.402;0.016;2022-10-31T15:13:44;3.75;;;1.83;;
24901;SDS011;31328;51.402;0.016;2022-10-31T15:16:21;4.40;;;1.50;;
24901;SDS011;31328;51.402;0.016;2022-10-31T15:19:03;3.15;;;2.00;;
24901;SDS011;31328;51.402;0.016;2022-10-31T15:21:31;3.67;;;2.10;;
24901;SDS011;31328;51.402;0.016;2022-10-31T15:23:59;4.32;;;1.60;;
24901;SDS011;31328;51.402;0.016;2022-10-31T15:26:27;3.97;;;2.13;;
24901;SDS011;31328;51.402;0.016;2022-10-31T15:29:03;3.78;;;1.60;;
24901;SDS011;31328;51.402;0.016;2022-10-31T15:31:31;5.53;;;1.58;;
24901;SDS011;31328;51.402;0.016;2022-10-31T15:33:59;4.72;;;1.40;;
24901;SDS011;31328;51.402;0.016;2022-10-31T15:36:32;4.78;;;1.90;;
24901;SDS011;31328;51.402;0.016;2022-10-31T15:38:58;4.30;;;1.88;;
24901;SDS011;31328;51.402;0.016;2022-10-31T15:41:27;5.63;;;1.60;;
24901;SDS011;31328;51.402;0.016;2022-10-31T15:44:15;3.88;;;1.85;;
24901;SDS011;31328;51.402;0.016;2022-10-31T15:47:04;3.92;;;1.73;;
24901;SDS011;31328;51.402;0.016;2022-10-31T15:49:42;3.08;;;1.95;;
24901;SDS011;31328;51.402;0.016;2022-10-31T15:52:15;5.15;;;1.88;;
24901;SDS011;31328;51.402;0.016;2022-10-31T15:54:53;2.80;;;1.33;;
24901;SDS011;31328;51.402;0.016;2022-10-31T15:57:22;3.53;;;1.70;;
24901;SDS011;31328;51.402;0.016;2022-10-31T15:59:49;6.10;;;1.90;;
24901;SDS011;31328;51.402;0.016;2022-10-31T16:02:23;5.80;;;1.95;;
24901;SDS011;31328;51.402;0.016;2022-10-31T16:04:53;4.22;;;1.60;;
24901;SDS011;31328;51.402;0.016;2022-10-31T16:07:24;4.13;;;1.60;;
24901;SDS011;31328;51.402;0.016;2022-10-31T16:10:01;5.22;;;2.03;;
24901;SDS011;31328;51.402;0.016;2022-10-31T16:12:31;4.72;;;1.65;;
24901;SDS011;31328;51.402;0.016;2022-10-31T16:15:01;5.57;;;1.55;;
24901;SDS011;31328;51.402;0.016;2022-10-31T16:17:28;3.30;;;1.70;;
24901;SDS011;31328;51.402;0.016;2022-10-31T16:20:02;5.10;;;1.98;;
24901;SDS011;31328;51.402;0.016;2022-10-31T16:22:33;2.40;;;1.75;;
24901;SDS011;31328;51.402;0.016;2022-10-31T16:25:11;2.80;;;1.52;;
24901;SDS011;31328;51.402;0.016;2022-10-31T16:27:40;2.13;;;1.70;;
24901;SDS011;31328;51.402;0.016;2022-10-31T16:33:20;6.53;;;1.92;;
24901;SDS011;31328;51.402;0.016;2022-10-31T16:35:52;4.18;;;1.30;;
24901;SDS011;31328;51.402;0.016;2022-10-31T16:38:19;3.33;;;2.05;;
24901;SDS011;31328;51.402;0.016;2022-10-31T16:40:46;3.90;;;1.75;;
24901;SDS011;31328;51.402;0.016;2022-10-31T16:43:13;7.15;;;2.72;;
24901;SDS011;31328;51.402;0.016;2022-10-31T16:45:49;4.40;;;2.05;;
24901;SDS011;31328;51.402;0.016;2022-10-31T16:50:48;4.15;;;1.67;;
24901;SDS011;31328;51.402;0.016;2022-10-31T16:53:16;3.70;;;1.58;;
24901;SDS011;31328;51.402;0.016;2022-10-31T16:55:46;6.07;;;1.70;;
24901;SDS011;31328;51.402;0.016;2022-10-31T16:58:18;3.45;;;2.13;;
24901;SDS011;31328;51.402;0.016;2022-10-31T17:00:50;7.85;;;3.10;;
24901;SDS011;31328;51.402;0.016;2022-10-31T17:03:18;7.22;;;3.38;;
24901;SDS011;31328;51.402;0.016;2022-10-31T17:05:44;7.57;;;4.18;;
24901;SDS011;31328;51.402;0.016;2022-10-31T17:08:11;5.22;;;3.33;;
24901;SDS011;31328;51.402;0.016;2022-10-31T17:10:38;5.15;;;2.15;;
24901;SDS011;31328;51.402;0.016;2022-10-31T17:13:07;6.78;;;2.55;;
24901;SDS011;31328;51.402;0.016;2022-10-31T17:15:41;6.15;;;2.47;;
24901;SDS011;31328;51.402;0.016;2022-10-31T17:18:13;6.10;;;2.97;;
24901;SDS011;31328;51.402;0.016;2022-10-31T17:20:41;6.40;;;3.00;;
24901;SDS011;31328;51.402;0.016;2022-10-31T17:23:08;5.15;;;2.50;;
24901;SDS011;31328;51.402;0.016;2022-10-31T17:25:36;4.20;;;3.10;;
24901;SDS011;31328;51.402;0.016;2022-10-31T17:28:03;6.40;;;3.25;;
24901;SDS011;31328;51.402;0.016;2022-10-31T17:30:30;7.30;;;3.50;;
24901;SDS011;31328;51.402;0.016;2022-10-31T17:32:57;6.78;;;3.28;;
24901;SDS011;31328;51.402;0.016;2022-10-31T17:35:23;6.63;;;3.13;;
24901;SDS011;31328;51.402;0.016;2022-10-31T17:37:50;7.97;;;3.55;;
24901;SDS011;31328;51.402;0.016;2022-10-31T17:40:17;16.15;;;6.25;;
24901;SDS011;31328;51.402;0.016;2022-10-31T17:42:52;11.30;;;6.10;;
24901;SDS011;31328;51.402;0.016;2022-10-31T17:45:21;10.88;;;6.68;;
24901;SDS011;31328;51.402;0.016;2022-10-31T17:47:49;11.82;;;6.75;;